sensor_id;sensor_type;location;lat;lon;timestamp;temperature;humidity
19090;DHT22;9677;50.656;13.064;2023-03-04T00:01:57;4.20;56.20
19090;DHT22;9677;50.656;13.064;2023-03-04T00:04:27;4.50;55.80
19090;DHT22;9677;50.656;13.064;2023-03-04T00:06:55;4.20;55.70
19090;DHT22;9677;50.656;13.064;2023-03-04T00:09:24;4.20;55.60
19090;DHT22;9677;50.656;13.064;2023-03-04T00:11:52;4.20;55.70
19090;DHT22;9677;50.656;13.064;2023-03-04T00:14:21;4.20;55.70
19090;DHT22;9677;50.656;13.064;2023-03-04T00:16:49;4.20;55.70
19090;DHT22;9677;50.656;13.064;2023-03-04T00:19:18;4.20;55.60
19090;DHT22;9677;50.656;13.064;2023-03-04T00:21:48;4.20;55.70
19090;DHT22;9677;50.656;13.064;2023-03-04T00:24:16;4.20;55.70
19090;DHT22;9677;50.656;13.064;2023-03-04T00:26:44;4.20;55.70
19090;DHT22;9677;50.656;13.064;2023-03-04T00:29:13;4.20;55.60
19090;DHT22;9677;50.656;13.064;2023-03-04T00:31:41;4.20;55.60
19090;DHT22;9677;50.656;13.064;2023-03-04T00:34:10;4.20;55.60
19090;DHT22;9677;50.656;13.064;2023-03-04T00:36:38;4.50;55.80
19090;DHT22;9677;50.656;13.064;2023-03-04T00:39:08;4.50;55.80
19090;DHT22;9677;50.656;13.064;2023-03-04T00:41:36;4.20;55.60
19090;DHT22;9677;50.656;13.064;2023-03-04T00:44:05;4.20;55.60
19090;DHT22;9677;50.656;13.064;2023-03-04T00:46:34;4.20;55.60
19090;DHT22;9677;50.656;13.064;2023-03-04T00:49:02;4.20;55.70
19090;DHT22;9677;50.656;13.064;2023-03-04T00:51:31;4.10;56.20
19090;DHT22;9677;50.656;13.064;2023-03-04T00:53:59;4.10;55.60
19090;DHT22;9677;50.656;13.064;2023-03-04T00:56:29;4.50;55.80
19090;DHT22;9677;50.656;13.064;2023-03-04T00:58:57;4.10;55.70
19090;DHT22;9677;50.656;13.064;2023-03-04T01:01:26;4.10;55.80
19090;DHT22;9677;50.656;13.064;2023-03-04T01:03:54;4.10;55.80
19090;DHT22;9677;50.656;13.064;2023-03-04T01:06:23;4.40;56.10
19090;DHT22;9677;50.656;13.064;2023-03-04T01:08:51;4.20;56.00
19090;DHT22;9677;50.656;13.064;2023-03-04T01:11:19;4.00;56.00
19090;DHT22;9677;50.656;13.064;2023-03-04T01:13:49;5.50;56.80
19090;DHT22;9677;50.656;13.064;2023-03-04T01:16:17;4.00;56.20
19090;DHT22;9677;50.656;13.064;2023-03-04T01:18:47;4.00;56.10
19090;DHT22;9677;50.656;13.064;2023-03-04T01:21:15;4.40;56.30
19090;DHT22;9677;50.656;13.064;2023-03-04T01:23:43;4.00;56.20
19090;DHT22;9677;50.656;13.064;2023-03-04T01:26:12;4.00;56.20
19090;DHT22;9677;50.656;13.064;2023-03-04T01:28:40;4.00;56.20
19090;DHT22;9677;50.656;13.064;2023-03-04T01:31:10;3.90;56.20
19090;DHT22;9677;50.656;13.064;2023-03-04T01:33:38;3.90;56.20
19090;DHT22;9677;50.656;13.064;2023-03-04T01:36:09;3.90;56.30
19090;DHT22;9677;50.656;13.064;2023-03-04T01:38:37;4.20;56.50
19090;DHT22;9677;50.656;13.064;2023-03-04T01:41:07;3.90;56.30
19090;DHT22;9677;50.656;13.064;2023-03-04T01:43:36;3.80;56.40
19090;DHT22;9677;50.656;13.064;2023-03-04T01:46:05;4.30;56.70
19090;DHT22;9677;50.656;13.064;2023-03-04T01:48:37;3.90;56.60
19090;DHT22;9677;50.656;13.064;2023-03-04T01:51:11;3.90;56.60
19090;DHT22;9677;50.656;13.064;2023-03-04T01:53:42;3.90;56.70
19090;DHT22;9677;50.656;13.064;2023-03-04T01:56:15;3.90;56.70
19090;DHT22;9677;50.656;13.064;2023-03-04T01:59:06;3.90;56.70
19090;DHT22;9677;50.656;13.064;2023-03-04T02:01:37;4.00;56.90
19090;DHT22;9677;50.656;13.064;2023-03-04T02:04:07;4.10;56.80
19090;DHT22;9677;50.656;13.064;2023-03-04T02:06:38;4.00;56.80
19090;DHT22;9677;50.656;13.064;2023-03-04T02:09:07;4.00;56.80
19090;DHT22;9677;50.656;13.064;2023-03-04T02:11:37;4.00;56.80
19090;DHT22;9677;50.656;13.064;2023-03-04T02:14:06;4.00;56.80
19090;DHT22;9677;50.656;13.064;2023-03-04T02:16:35;4.30;56.90
19090;DHT22;9677;50.656;13.064;2023-03-04T02:19:04;4.10;56.80
19090;DHT22;9677;50.656;13.064;2023-03-04T02:21:37;4.10;56.80
19090;DHT22;9677;50.656;13.064;2023-03-04T02:24:10;4.10;57.30
19090;DHT22;9677;50.656;13.064;2023-03-04T02:26:44;4.10;56.80
19090;DHT22;9677;50.656;13.064;2023-03-04T02:29:14;4.20;56.80
19090;DHT22;9677;50.656;13.064;2023-03-04T02:31:45;4.20;56.70
19090;DHT22;9677;50.656;13.064;2023-03-04T02:34:17;4.20;56.70
19090;DHT22;9677;50.656;13.064;2023-03-04T02:36:49;4.20;56.60
19090;DHT22;9677;50.656;13.064;2023-03-04T02:39:24;4.20;56.60
19090;DHT22;9677;50.656;13.064;2023-03-04T02:41:57;4.30;56.60
19090;DHT22;9677;50.656;13.064;2023-03-04T02:44:29;4.20;56.50
19090;DHT22;9677;50.656;13.064;2023-03-04T02:47:01;4.20;56.50
19090;DHT22;9677;50.656;13.064;2023-03-04T02:49:31;4.30;56.50
19090;DHT22;9677;50.656;13.064;2023-03-04T02:52:02;4.20;56.50
19090;DHT22;9677;50.656;13.064;2023-03-04T02:54:33;4.20;56.50
19090;DHT22;9677;50.656;13.064;2023-03-04T02:57:05;4.20;56.60
19090;DHT22;9677;50.656;13.064;2023-03-04T02:59:37;4.20;56.60
19090;DHT22;9677;50.656;13.064;2023-03-04T03:02:09;4.20;56.70
19090;DHT22;9677;50.656;13.064;2023-03-04T03:04:38;4.20;56.70
19090;DHT22;9677;50.656;13.064;2023-03-04T03:07:11;4.20;56.80
19090;DHT22;9677;50.656;13.064;2023-03-04T03:09:40;4.20;56.80
19090;DHT22;9677;50.656;13.064;2023-03-04T03:12:10;4.20;56.90
19090;DHT22;9677;50.656;13.064;2023-03-04T03:14:38;4.20;56.90
19090;DHT22;9677;50.656;13.064;2023-03-04T03:17:09;4.20;56.90
19090;DHT22;9677;50.656;13.064;2023-03-04T03:19:37;4.20;56.80
19090;DHT22;9677;50.656;13.064;2023-03-04T03:22:07;4.20;56.70
19090;DHT22;9677;50.656;13.064;2023-03-04T03:24:35;4.10;56.70
19090;DHT22;9677;50.656;13.064;2023-03-04T03:27:04;4.10;56.70
19090;DHT22;9677;50.656;13.064;2023-03-04T03:29:34;4.10;56.80
19090;DHT22;9677;50.656;13.064;2023-03-04T03:32:06;4.10;56.90
19090;DHT22;9677;50.656;13.064;2023-03-04T03:34:34;4.20;57.00
19090;DHT22;9677;50.656;13.064;2023-03-04T03:37:03;4.10;56.90
19090;DHT22;9677;50.656;13.064;2023-03-04T03:39:31;4.00;57.00
19090;DHT22;9677;50.656;13.064;2023-03-04T03:42:00;4.00;57.00
19090;DHT22;9677;50.656;13.064;2023-03-04T03:44:28;4.00;56.90
19090;DHT22;9677;50.656;13.064;2023-03-04T03:46:58;4.10;57.00
19090;DHT22;9677;50.656;13.064;2023-03-04T03:49:27;4.00;57.10
19090;DHT22;9677;50.656;13.064;2023-03-04T03:51:55;4.00;57.20
19090;DHT22;9677;50.656;13.064;2023-03-04T03:54:23;4.00;57.20
19090;DHT22;9677;50.656;13.064;2023-03-04T03:56:52;4.20;57.70
19090;DHT22;9677;50.656;13.064;2023-03-04T03:59:20;4.00;57.50
19090;DHT22;9677;50.656;13.064;2023-03-04T04:01:50;4.00;57.50
19090;DHT22;9677;50.656;13.064;2023-03-04T04:04:19;4.00;57.40
19090;DHT22;9677;50.656;13.064;2023-03-04T04:06:48;3.90;57.30
19090;DHT22;9677;50.656;13.064;2023-03-04T04:09:16;3.90;57.40
19090;DHT22;9677;50.656;13.064;2023-03-04T04:11:45;4.00;57.50
19090;DHT22;9677;50.656;13.064;2023-03-04T04:14:13;4.00;57.50
19090;DHT22;9677;50.656;13.064;2023-03-04T04:16:42;4.00;58.10
19090;DHT22;9677;50.656;13.064;2023-03-04T04:19:15;4.00;57.50
19090;DHT22;9677;50.656;13.064;2023-03-04T04:21:47;3.90;57.50
19090;DHT22;9677;50.656;13.064;2023-03-04T04:24:15;3.90;57.40
19090;DHT22;9677;50.656;13.064;2023-03-04T04:26:44;4.00;57.50
19090;DHT22;9677;50.656;13.064;2023-03-04T04:29:13;4.00;57.50
19090;DHT22;9677;50.656;13.064;2023-03-04T04:31:42;4.00;57.60
19090;DHT22;9677;50.656;13.064;2023-03-04T04:34:10;4.50;57.70
19090;DHT22;9677;50.656;13.064;2023-03-04T04:36:39;4.00;57.40
19090;DHT22;9677;50.656;13.064;2023-03-04T04:39:08;4.00;57.40
19090;DHT22;9677;50.656;13.064;2023-03-04T04:41:39;4.00;57.40
19090;DHT22;9677;50.656;13.064;2023-03-04T04:44:09;4.00;57.50
19090;DHT22;9677;50.656;13.064;2023-03-04T04:46:38;4.00;57.60
19090;DHT22;9677;50.656;13.064;2023-03-04T04:49:07;4.00;57.60
19090;DHT22;9677;50.656;13.064;2023-03-04T04:51:36;4.00;57.60
19090;DHT22;9677;50.656;13.064;2023-03-04T04:54:06;4.10;57.70
19090;DHT22;9677;50.656;13.064;2023-03-04T04:56:36;4.10;57.60
19090;DHT22;9677;50.656;13.064;2023-03-04T04:59:04;4.10;57.60
19090;DHT22;9677;50.656;13.064;2023-03-04T05:01:34;4.10;57.60
19090;DHT22;9677;50.656;13.064;2023-03-04T05:04:03;4.40;57.80
19090;DHT22;9677;50.656;13.064;2023-03-04T05:06:32;4.10;57.60
19090;DHT22;9677;50.656;13.064;2023-03-04T05:09:00;4.20;57.70
19090;DHT22;9677;50.656;13.064;2023-03-04T05:11:30;4.20;57.70
19090;DHT22;9677;50.656;13.064;2023-03-04T05:13:58;4.20;57.60
19090;DHT22;9677;50.656;13.064;2023-03-04T05:16:27;4.20;57.60
19090;DHT22;9677;50.656;13.064;2023-03-04T05:18:55;4.20;57.60
19090;DHT22;9677;50.656;13.064;2023-03-04T05:21:23;4.20;57.60
19090;DHT22;9677;50.656;13.064;2023-03-04T05:23:52;4.20;57.60
19090;DHT22;9677;50.656;13.064;2023-03-04T05:26:20;4.30;57.60
19090;DHT22;9677;50.656;13.064;2023-03-04T05:28:50;4.30;57.60
19090;DHT22;9677;50.656;13.064;2023-03-04T05:31:18;4.30;57.60
19090;DHT22;9677;50.656;13.064;2023-03-04T05:33:47;4.30;57.60
19090;DHT22;9677;50.656;13.064;2023-03-04T05:36:15;4.30;57.50
19090;DHT22;9677;50.656;13.064;2023-03-04T05:38:43;4.30;57.50
19090;DHT22;9677;50.656;13.064;2023-03-04T05:41:12;4.30;57.50
19090;DHT22;9677;50.656;13.064;2023-03-04T05:43:40;4.40;57.50
19090;DHT22;9677;50.656;13.064;2023-03-04T05:46:13;4.40;57.50
19090;DHT22;9677;50.656;13.064;2023-03-04T05:48:42;4.40;57.60
19090;DHT22;9677;50.656;13.064;2023-03-04T05:51:12;4.40;57.60
19090;DHT22;9677;50.656;13.064;2023-03-04T05:53:41;4.40;57.50
19090;DHT22;9677;50.656;13.064;2023-03-04T05:56:11;4.40;57.50
19090;DHT22;9677;50.656;13.064;2023-03-04T05:58:41;4.40;57.50
19090;DHT22;9677;50.656;13.064;2023-03-04T06:01:11;4.40;57.50
19090;DHT22;9677;50.656;13.064;2023-03-04T06:03:40;4.50;57.50
19090;DHT22;9677;50.656;13.064;2023-03-04T06:06:09;4.50;58.00
19090;DHT22;9677;50.656;13.064;2023-03-04T06:08:38;4.50;57.50
19090;DHT22;9677;50.656;13.064;2023-03-04T06:11:06;4.50;57.50
19090;DHT22;9677;50.656;13.064;2023-03-04T06:13:35;4.50;57.50
19090;DHT22;9677;50.656;13.064;2023-03-04T06:16:04;4.50;57.50
19090;DHT22;9677;50.656;13.064;2023-03-04T06:18:34;4.50;57.60
19090;DHT22;9677;50.656;13.064;2023-03-04T06:21:03;4.50;57.50
19090;DHT22;9677;50.656;13.064;2023-03-04T06:23:32;4.50;57.80
19090;DHT22;9677;50.656;13.064;2023-03-04T06:26:01;4.60;57.70
19090;DHT22;9677;50.656;13.064;2023-03-04T06:28:29;4.50;57.70
19090;DHT22;9677;50.656;13.064;2023-03-04T06:30:58;4.50;57.70
19090;DHT22;9677;50.656;13.064;2023-03-04T06:33:26;4.60;57.70
19090;DHT22;9677;50.656;13.064;2023-03-04T06:35:56;4.60;57.70
19090;DHT22;9677;50.656;13.064;2023-03-04T06:38:25;4.60;57.70
19090;DHT22;9677;50.656;13.064;2023-03-04T06:40:54;4.60;57.70
19090;DHT22;9677;50.656;13.064;2023-03-04T06:43:23;4.60;57.70
19090;DHT22;9677;50.656;13.064;2023-03-04T06:45:52;4.60;57.70
19090;DHT22;9677;50.656;13.064;2023-03-04T06:48:20;4.60;57.70
19090;DHT22;9677;50.656;13.064;2023-03-04T06:50:49;4.60;57.70
19090;DHT22;9677;50.656;13.064;2023-03-04T06:53:18;4.60;57.70
19090;DHT22;9677;50.656;13.064;2023-03-04T06:55:47;4.60;57.70
19090;DHT22;9677;50.656;13.064;2023-03-04T06:58:16;4.60;57.70
19090;DHT22;9677;50.656;13.064;2023-03-04T07:00:44;4.70;57.80
19090;DHT22;9677;50.656;13.064;2023-03-04T07:03:13;4.70;57.80
19090;DHT22;9677;50.656;13.064;2023-03-04T07:05:41;4.90;57.80
19090;DHT22;9677;50.656;13.064;2023-03-04T07:08:10;4.70;57.70
19090;DHT22;9677;50.656;13.064;2023-03-04T07:10:40;4.70;57.50
19090;DHT22;9677;50.656;13.064;2023-03-04T07:13:08;5.00;57.70
19090;DHT22;9677;50.656;13.064;2023-03-04T07:15:37;4.80;57.70
19090;DHT22;9677;50.656;13.064;2023-03-04T07:18:05;4.70;57.70
19090;DHT22;9677;50.656;13.064;2023-03-04T07:20:33;4.70;57.70
19090;DHT22;9677;50.656;13.064;2023-03-04T07:23:02;4.80;57.70
19090;DHT22;9677;50.656;13.064;2023-03-04T07:25:30;4.80;57.70
19090;DHT22;9677;50.656;13.064;2023-03-04T07:28:00;4.80;57.70
19090;DHT22;9677;50.656;13.064;2023-03-04T07:30:28;4.80;57.70
19090;DHT22;9677;50.656;13.064;2023-03-04T07:32:57;4.80;57.70
19090;DHT22;9677;50.656;13.064;2023-03-04T07:35:25;4.80;57.80
19090;DHT22;9677;50.656;13.064;2023-03-04T07:37:54;4.90;57.80
19090;DHT22;9677;50.656;13.064;2023-03-04T07:40:22;4.90;57.80
19090;DHT22;9677;50.656;13.064;2023-03-04T07:42:51;4.90;57.80
19090;DHT22;9677;50.656;13.064;2023-03-04T07:45:22;4.90;57.80
19090;DHT22;9677;50.656;13.064;2023-03-04T07:47:51;5.20;57.90
19090;DHT22;9677;50.656;13.064;2023-03-04T07:50:20;5.00;57.90
19090;DHT22;9677;50.656;13.064;2023-03-04T07:52:49;5.00;57.80
19090;DHT22;9677;50.656;13.064;2023-03-04T07:55:18;5.00;57.80
19090;DHT22;9677;50.656;13.064;2023-03-04T07:57:46;5.10;57.80
19090;DHT22;9677;50.656;13.064;2023-03-04T08:00:16;5.10;57.80
19090;DHT22;9677;50.656;13.064;2023-03-04T08:02:47;5.10;57.80
19090;DHT22;9677;50.656;13.064;2023-03-04T08:05:15;5.10;57.70
19090;DHT22;9677;50.656;13.064;2023-03-04T08:07:43;5.10;57.70
19090;DHT22;9677;50.656;13.064;2023-03-04T08:10:12;5.20;57.70
19090;DHT22;9677;50.656;13.064;2023-03-04T08:12:40;5.20;57.70
19090;DHT22;9677;50.656;13.064;2023-03-04T08:15:09;5.20;57.70
19090;DHT22;9677;50.656;13.064;2023-03-04T08:17:38;5.20;57.80
19090;DHT22;9677;50.656;13.064;2023-03-04T08:20:10;5.20;57.80
19090;DHT22;9677;50.656;13.064;2023-03-04T08:22:39;5.20;57.70
19090;DHT22;9677;50.656;13.064;2023-03-04T08:25:08;5.20;57.70
19090;DHT22;9677;50.656;13.064;2023-03-04T08:27:37;5.20;57.70
19090;DHT22;9677;50.656;13.064;2023-03-04T08:30:06;5.20;57.70
19090;DHT22;9677;50.656;13.064;2023-03-04T08:32:35;5.30;57.90
19090;DHT22;9677;50.656;13.064;2023-03-04T08:35:04;5.50;57.90
19090;DHT22;9677;50.656;13.064;2023-03-04T08:37:34;5.30;57.90
19090;DHT22;9677;50.656;13.064;2023-03-04T08:40:03;5.30;57.80
19090;DHT22;9677;50.656;13.064;2023-03-04T08:42:32;5.30;57.80
19090;DHT22;9677;50.656;13.064;2023-03-04T08:45:01;5.40;57.80
19090;DHT22;9677;50.656;13.064;2023-03-04T08:47:29;5.40;57.80
19090;DHT22;9677;50.656;13.064;2023-03-04T08:49:57;5.40;57.70
19090;DHT22;9677;50.656;13.064;2023-03-04T08:52:27;5.40;57.80
19090;DHT22;9677;50.656;13.064;2023-03-04T08:54:57;5.40;57.80
19090;DHT22;9677;50.656;13.064;2023-03-04T08:57:26;5.80;58.10
19090;DHT22;9677;50.656;13.064;2023-03-04T08:59:54;5.50;57.90
19090;DHT22;9677;50.656;13.064;2023-03-04T09:02:23;5.50;58.10
19090;DHT22;9677;50.656;13.064;2023-03-04T09:04:51;5.60;58.00
19090;DHT22;9677;50.656;13.064;2023-03-04T09:07:19;5.60;58.10
19090;DHT22;9677;50.656;13.064;2023-03-04T09:09:48;5.60;58.00
19090;DHT22;9677;50.656;13.064;2023-03-04T09:12:17;5.70;58.10
19090;DHT22;9677;50.656;13.064;2023-03-04T09:14:46;6.40;58.50
19090;DHT22;9677;50.656;13.064;2023-03-04T09:17:34;5.70;58.10
19090;DHT22;9677;50.656;13.064;2023-03-04T09:20:03;5.90;58.10
19090;DHT22;9677;50.656;13.064;2023-03-04T09:22:34;5.80;58.20
19090;DHT22;9677;50.656;13.064;2023-03-04T09:25:03;5.80;58.00
19090;DHT22;9677;50.656;13.064;2023-03-04T09:27:39;5.80;58.00
19090;DHT22;9677;50.656;13.064;2023-03-04T09:30:09;5.90;58.00
19090;DHT22;9677;50.656;13.064;2023-03-04T09:32:39;5.90;58.00
19090;DHT22;9677;50.656;13.064;2023-03-04T09:35:07;5.90;58.00
19090;DHT22;9677;50.656;13.064;2023-03-04T09:37:36;6.00;58.20
19090;DHT22;9677;50.656;13.064;2023-03-04T09:40:10;6.00;58.20
19090;DHT22;9677;50.656;13.064;2023-03-04T09:42:47;6.10;58.30
19090;DHT22;9677;50.656;13.064;2023-03-04T09:45:20;6.10;58.10
19090;DHT22;9677;50.656;13.064;2023-03-04T09:47:52;6.10;58.10
19090;DHT22;9677;50.656;13.064;2023-03-04T09:50:22;6.40;58.10
19090;DHT22;9677;50.656;13.064;2023-03-04T09:53:05;6.20;57.90
19090;DHT22;9677;50.656;13.064;2023-03-04T09:55:37;6.30;58.00
19090;DHT22;9677;50.656;13.064;2023-03-04T09:58:20;6.30;58.00
19090;DHT22;9677;50.656;13.064;2023-03-04T10:00:55;6.40;58.10
19090;DHT22;9677;50.656;13.064;2023-03-04T10:03:33;6.40;57.90
19090;DHT22;9677;50.656;13.064;2023-03-04T10:06:12;6.50;57.90
19090;DHT22;9677;50.656;13.064;2023-03-04T10:08:49;6.50;57.90
19090;DHT22;9677;50.656;13.064;2023-03-04T10:11:23;6.50;57.80
19090;DHT22;9677;50.656;13.064;2023-03-04T10:14:02;6.60;57.80
19090;DHT22;9677;50.656;13.064;2023-03-04T10:16:40;6.60;57.70
19090;DHT22;9677;50.656;13.064;2023-03-04T10:19:24;6.90;57.90
19090;DHT22;9677;50.656;13.064;2023-03-04T10:21:56;6.70;57.80
19090;DHT22;9677;50.656;13.064;2023-03-04T10:24:27;6.90;57.90
19090;DHT22;9677;50.656;13.064;2023-03-04T10:27:00;6.80;57.80
19090;DHT22;9677;50.656;13.064;2023-03-04T10:29:33;6.80;57.70
19090;DHT22;9677;50.656;13.064;2023-03-04T10:32:01;6.80;57.50
19090;DHT22;9677;50.656;13.064;2023-03-04T10:34:30;6.90;57.50
19090;DHT22;9677;50.656;13.064;2023-03-04T10:36:59;6.90;57.40
19090;DHT22;9677;50.656;13.064;2023-03-04T10:39:31;7.10;57.50
19090;DHT22;9677;50.656;13.064;2023-03-04T10:42:02;7.00;57.50
19090;DHT22;9677;50.656;13.064;2023-03-04T10:44:34;7.00;57.60
19090;DHT22;9677;50.656;13.064;2023-03-04T10:47:08;7.20;57.60
19090;DHT22;9677;50.656;13.064;2023-03-04T10:49:50;7.10;57.50
19090;DHT22;9677;50.656;13.064;2023-03-04T10:52:26;7.20;57.50
19090;DHT22;9677;50.656;13.064;2023-03-04T10:54:58;7.20;57.40
19090;DHT22;9677;50.656;13.064;2023-03-04T10:57:33;7.20;57.30
19090;DHT22;9677;50.656;13.064;2023-03-04T11:00:24;7.20;57.20
19090;DHT22;9677;50.656;13.064;2023-03-04T11:03:32;7.30;57.10
19090;DHT22;9677;50.656;13.064;2023-03-04T11:06:19;7.30;57.20
19090;DHT22;9677;50.656;13.064;2023-03-04T11:08:54;7.20;56.90
19090;DHT22;9677;50.656;13.064;2023-03-04T11:11:30;7.50;57.00
19090;DHT22;9677;50.656;13.064;2023-03-04T11:14:12;7.20;56.90
19090;DHT22;9677;50.656;13.064;2023-03-04T11:16:52;7.60;57.20
19090;DHT22;9677;50.656;13.064;2023-03-04T11:19:28;7.40;57.10
19090;DHT22;9677;50.656;13.064;2023-03-04T11:21:59;7.40;57.10
19090;DHT22;9677;50.656;13.064;2023-03-04T11:24:31;7.50;57.40
19090;DHT22;9677;50.656;13.064;2023-03-04T11:27:04;7.40;57.00
19090;DHT22;9677;50.656;13.064;2023-03-04T11:29:41;7.40;57.00
19090;DHT22;9677;50.656;13.064;2023-03-04T11:32:16;8.10;57.30
19090;DHT22;9677;50.656;13.064;2023-03-04T11:34:50;7.40;56.90
19090;DHT22;9677;50.656;13.064;2023-03-04T11:37:24;7.30;56.90
19090;DHT22;9677;50.656;13.064;2023-03-04T11:39:58;7.30;56.90
19090;DHT22;9677;50.656;13.064;2023-03-04T11:42:33;7.40;57.00
19090;DHT22;9677;50.656;13.064;2023-03-04T11:45:10;7.40;57.00
19090;DHT22;9677;50.656;13.064;2023-03-04T11:48:03;7.90;57.20
19090;DHT22;9677;50.656;13.064;2023-03-04T11:50:42;7.40;56.90
19090;DHT22;9677;50.656;13.064;2023-03-04T11:53:24;7.40;56.90
19090;DHT22;9677;50.656;13.064;2023-03-04T11:56:09;7.60;57.00
19090;DHT22;9677;50.656;13.064;2023-03-04T11:59:23;7.50;56.90
19090;DHT22;9677;50.656;13.064;2023-03-04T12:02:10;7.40;56.90
19090;DHT22;9677;50.656;13.064;2023-03-04T12:05:04;7.40;56.90
19090;DHT22;9677;50.656;13.064;2023-03-04T12:08:02;7.50;56.90
19090;DHT22;9677;50.656;13.064;2023-03-04T12:10:45;7.40;56.90
19090;DHT22;9677;50.656;13.064;2023-03-04T12:13:34;7.40;56.80
19090;DHT22;9677;50.656;13.064;2023-03-04T12:16:28;7.40;56.90
19090;DHT22;9677;50.656;13.064;2023-03-04T12:19:11;7.50;57.00
19090;DHT22;9677;50.656;13.064;2023-03-04T12:22:02;7.50;57.00
19090;DHT22;9677;50.656;13.064;2023-03-04T12:24:57;7.40;56.90
19090;DHT22;9677;50.656;13.064;2023-03-04T12:27:38;7.50;56.90
19090;DHT22;9677;50.656;13.064;2023-03-04T12:30:19;7.60;57.00
19090;DHT22;9677;50.656;13.064;2023-03-04T12:33:02;7.50;56.80
19090;DHT22;9677;50.656;13.064;2023-03-04T12:35:40;7.50;56.80
19090;DHT22;9677;50.656;13.064;2023-03-04T12:38:38;7.70;56.90
19090;DHT22;9677;50.656;13.064;2023-03-04T12:41:24;7.50;56.80
19090;DHT22;9677;50.656;13.064;2023-03-04T12:44:04;7.50;56.90
19090;DHT22;9677;50.656;13.064;2023-03-04T12:46:46;7.50;56.80
19090;DHT22;9677;50.656;13.064;2023-03-04T12:49:39;7.50;56.80
19090;DHT22;9677;50.656;13.064;2023-03-04T12:52:18;7.50;56.80
19090;DHT22;9677;50.656;13.064;2023-03-04T12:54:55;7.50;56.90
19090;DHT22;9677;50.656;13.064;2023-03-04T12:57:26;7.50;56.90
19090;DHT22;9677;50.656;13.064;2023-03-04T13:00:07;7.50;56.90
19090;DHT22;9677;50.656;13.064;2023-03-04T13:02:53;7.50;57.00
19090;DHT22;9677;50.656;13.064;2023-03-04T13:08:49;7.40;57.00
19090;DHT22;9677;50.656;13.064;2023-03-04T13:11:51;7.50;57.10
19090;DHT22;9677;50.656;13.064;2023-03-04T13:14:24;7.50;57.10
19090;DHT22;9677;50.656;13.064;2023-03-04T13:16:58;7.50;57.00
19090;DHT22;9677;50.656;13.064;2023-03-04T13:19:49;7.50;57.00
19090;DHT22;9677;50.656;13.064;2023-03-04T13:22:41;7.50;57.00
19090;DHT22;9677;50.656;13.064;2023-03-04T13:25:42;7.70;57.20
19090;DHT22;9677;50.656;13.064;2023-03-04T13:28:26;7.50;57.10
19090;DHT22;9677;50.656;13.064;2023-03-04T13:31:23;7.60;57.20
19090;DHT22;9677;50.656;13.064;2023-03-04T13:34:02;7.60;57.70
19090;DHT22;9677;50.656;13.064;2023-03-04T13:36:34;7.70;57.10
19090;DHT22;9677;50.656;13.064;2023-03-04T13:39:32;7.80;57.20
19090;DHT22;9677;50.656;13.064;2023-03-04T13:42:04;7.70;57.10
19090;DHT22;9677;50.656;13.064;2023-03-04T13:45:32;7.70;57.10
19090;DHT22;9677;50.656;13.064;2023-03-04T13:48:03;7.70;57.10
19090;DHT22;9677;50.656;13.064;2023-03-04T13:50:40;7.70;57.00
19090;DHT22;9677;50.656;13.064;2023-03-04T13:53:37;7.70;57.00
19090;DHT22;9677;50.656;13.064;2023-03-04T13:56:24;7.80;57.00
19090;DHT22;9677;50.656;13.064;2023-03-04T13:59:09;7.80;57.00
19090;DHT22;9677;50.656;13.064;2023-03-04T14:01:58;7.80;57.00
19090;DHT22;9677;50.656;13.064;2023-03-04T14:04:33;7.90;57.50
19090;DHT22;9677;50.656;13.064;2023-03-04T14:07:16;7.80;56.80
19090;DHT22;9677;50.656;13.064;2023-03-04T14:09:54;7.80;56.80
19090;DHT22;9677;50.656;13.064;2023-03-04T14:12:25;7.90;56.90
19090;DHT22;9677;50.656;13.064;2023-03-04T14:14:56;8.00;56.90
19090;DHT22;9677;50.656;13.064;2023-03-04T14:17:29;7.80;56.80
19090;DHT22;9677;50.656;13.064;2023-03-04T14:19:59;7.80;56.80
19090;DHT22;9677;50.656;13.064;2023-03-04T14:22:30;8.00;56.90
19090;DHT22;9677;50.656;13.064;2023-03-04T14:25:01;7.90;56.80
19090;DHT22;9677;50.656;13.064;2023-03-04T14:27:32;7.80;56.90
19090;DHT22;9677;50.656;13.064;2023-03-04T14:30:04;7.90;56.90
19090;DHT22;9677;50.656;13.064;2023-03-04T14:32:36;7.80;56.90
19090;DHT22;9677;50.656;13.064;2023-03-04T14:35:06;8.00;57.00
19090;DHT22;9677;50.656;13.064;2023-03-04T14:37:49;7.90;57.00
19090;DHT22;9677;50.656;13.064;2023-03-04T14:40:24;8.10;57.10
19090;DHT22;9677;50.656;13.064;2023-03-04T14:42:57;7.90;57.00
19090;DHT22;9677;50.656;13.064;2023-03-04T14:45:28;8.00;57.10
19090;DHT22;9677;50.656;13.064;2023-03-04T14:48:02;7.90;56.90
19090;DHT22;9677;50.656;13.064;2023-03-04T14:50:33;7.90;56.90
19090;DHT22;9677;50.656;13.064;2023-03-04T14:53:13;8.00;57.00
19090;DHT22;9677;50.656;13.064;2023-03-04T14:55:55;8.00;56.90
19090;DHT22;9677;50.656;13.064;2023-03-04T14:58:27;8.00;56.90
19090;DHT22;9677;50.656;13.064;2023-03-04T15:01:12;8.00;56.80
19090;DHT22;9677;50.656;13.064;2023-03-04T15:03:55;8.00;56.70
19090;DHT22;9677;50.656;13.064;2023-03-04T15:06:27;8.00;56.60
19090;DHT22;9677;50.656;13.064;2023-03-04T15:08:59;8.00;56.60
19090;DHT22;9677;50.656;13.064;2023-03-04T15:11:31;8.30;56.80
19090;DHT22;9677;50.656;13.064;2023-03-04T15:17:23;8.00;56.60
19090;DHT22;9677;50.656;13.064;2023-03-04T15:20:00;8.00;56.60
19090;DHT22;9677;50.656;13.064;2023-03-04T15:23:01;8.00;56.60
19090;DHT22;9677;50.656;13.064;2023-03-04T15:25:33;8.00;56.70
19090;DHT22;9677;50.656;13.064;2023-03-04T15:28:02;8.00;56.60
19090;DHT22;9677;50.656;13.064;2023-03-04T15:30:33;7.90;56.70
19090;DHT22;9677;50.656;13.064;2023-03-04T15:33:02;8.10;56.80
19090;DHT22;9677;50.656;13.064;2023-03-04T15:35:33;7.90;56.70
19090;DHT22;9677;50.656;13.064;2023-03-04T15:38:05;8.00;56.80
19090;DHT22;9677;50.656;13.064;2023-03-04T15:40:36;7.90;56.80
19090;DHT22;9677;50.656;13.064;2023-03-04T15:43:06;7.90;56.80
19090;DHT22;9677;50.656;13.064;2023-03-04T15:45:36;8.00;56.90
19090;DHT22;9677;50.656;13.064;2023-03-04T15:48:06;7.90;56.90
19090;DHT22;9677;50.656;13.064;2023-03-04T15:50:39;7.90;56.90
19090;DHT22;9677;50.656;13.064;2023-03-04T15:53:13;7.90;56.90
19090;DHT22;9677;50.656;13.064;2023-03-04T15:55:45;7.80;56.90
19090;DHT22;9677;50.656;13.064;2023-03-04T15:58:14;7.80;56.90
19090;DHT22;9677;50.656;13.064;2023-03-04T16:00:43;7.80;57.00
19090;DHT22;9677;50.656;13.064;2023-03-04T16:03:14;7.90;57.00
19090;DHT22;9677;50.656;13.064;2023-03-04T16:05:46;7.80;57.00
19090;DHT22;9677;50.656;13.064;2023-03-04T16:08:18;7.80;57.00
19090;DHT22;9677;50.656;13.064;2023-03-04T16:10:49;8.10;57.20
19090;DHT22;9677;50.656;13.064;2023-03-04T16:13:20;7.90;57.10
19090;DHT22;9677;50.656;13.064;2023-03-04T16:15:49;7.80;57.00
19090;DHT22;9677;50.656;13.064;2023-03-04T16:18:18;7.80;57.00
19090;DHT22;9677;50.656;13.064;2023-03-04T16:20:48;7.80;57.00
19090;DHT22;9677;50.656;13.064;2023-03-04T16:23:20;7.90;57.10
19090;DHT22;9677;50.656;13.064;2023-03-04T16:25:51;7.80;57.00
19090;DHT22;9677;50.656;13.064;2023-03-04T16:28:20;7.70;56.90